Time;durP1;ratioP1;P1;durP2;ratioP2;P2;SDS_P1;SDS_P2;PMS_P1;PMS_P2;Temp;Humidity;BMP_temperature;BMP_pressure;BME280_temperature;BME280_humidity;BME280_pressure;Samples;Min_cycle;Max_cycle;Signal;HPM_P1;HPM_P2
2022/04/26 03:41:03;;;;;;;10.25;8.07;;;;;;;;;;10468330;28;20037;-83
2022/04/26 03:46:21;;;;;;;12.02;9.40;;;;;;;;;;10475648;28;20090;-84
2022/04/26 03:51:31;;;;;;;13.95;9.70;;;;;;;;;;10472198;28;20049;-82
2022/04/26 03:56:39;;;;;;;14.60;10.20;;;;;;;;;;10468658;28;20151;-83
2022/04/26 04:01:43;;;;;;;16.02;10.93;;;;;;;;;;10428429;28;20040;-79
2022/04/26 04:06:44;;;;;;;15.00;10.63;;;;;;;;;;10453133;28;20048;-78
2022/04/26 04:11:46;;;;;;;17.23;10.75;;;;;;;;;;10466837;28;20283;-82
2022/04/26 04:16:47;;;;;;;18.13;11.38;;;;;;;;;;10474992;28;20060;-86
2022/04/26 04:21:50;;;;;;;19.07;12.67;;;;;;;;;;10478935;28;20127;-83
2022/04/26 04:26:50;;;;;;;20.27;13.57;;;;;;;;;;10478789;28;20062;-80
2022/04/26 04:31:51;;;;;;;20.13;12.87;;;;;;;;;;10480054;28;20057;-85
2022/04/26 04:36:51;;;;;;;17.55;11.80;;;;;;;;;;10473844;28;20388;-80
2022/04/26 04:41:52;;;;;;;20.77;12.13;;;;;;;;;;10456926;28;20052;-78
2022/04/26 04:46:54;;;;;;;20.08;13.10;;;;;;;;;;10424680;28;20655;-80
2022/04/26 04:51:55;;;;;;;22.07;14.23;;;;;;;;;;10472619;28;20057;-78
2022/04/26 04:56:55;;;;;;;21.03;14.10;;;;;;;;;;10469964;28;20056;-78
2022/04/26 05:01:56;;;;;;;25.50;14.38;;;;;;;;;;10430514;28;20327;-80
2022/04/26 05:06:56;;;;;;;21.90;13.80;;;;;;;;;;10458795;28;20078;-76
2022/04/26 05:11:58;;;;;;;21.20;13.97;;;;;;;;;;10449078;28;20464;-78
2022/04/26 05:16:58;;;;;;;23.38;13.90;;;;;;;;;;10458444;28;20045;-79
2022/04/26 05:22:00;;;;;;;28.13;14.83;;;;;;;;;;10464312;28;20045;-79
2022/04/26 05:27:01;;;;;;;24.75;14.80;;;;;;;;;;10493150;28;20264;-79
2022/04/26 05:32:03;;;;;;;24.73;14.90;;;;;;;;;;10457831;28;20104;-79
2022/04/26 05:37:03;;;;;;;23.42;14.70;;;;;;;;;;10465241;28;20044;-77
2022/04/26 05:42:04;;;;;;;21.90;13.63;;;;;;;;;;10443263;28;20045;-78
2022/04/26 05:47:07;;;;;;;24.10;14.48;;;;;;;;;;10443156;28;20759;-79
2022/04/26 05:52:08;;;;;;;29.45;16.48;;;;;;;;;;10434578;28;20072;-80
2022/04/26 05:57:09;;;;;;;25.20;15.23;;;;;;;;;;10438426;28;20052;-80
2022/04/26 06:02:11;;;;;;;27.95;16.15;;;;;;;;;;10439407;28;20049;-78
2022/04/26 06:07:13;;;;;;;27.85;17.02;;;;;;;;;;10433055;28;20147;-78
2022/04/26 06:12:13;;;;;;;29.88;18.02;;;;;;;;;;10468669;28;20041;-78
2022/04/26 06:17:13;;;;;;;30.90;17.93;;;;;;;;;;10438025;28;20059;-79
2022/04/26 06:22:15;;;;;;;27.53;17.67;;;;;;;;;;10465047;28;20642;-83
2022/04/26 06:27:16;;;;;;;27.33;16.98;;;;;;;;;;10463133;28;20136;-79
2022/04/26 06:32:19;;;;;;;29.70;17.27;;;;;;;;;;10440393;28;20112;-78
2022/04/26 06:37:23;;;;;;;28.70;17.30;;;;;;;;;;10456042;28;20148;-76
2022/04/26 06:42:23;;;;;;;27.90;17.15;;;;;;;;;;10446679;28;20140;-79
2022/04/26 06:47:23;;;;;;;30.58;17.42;;;;;;;;;;10464900;28;20531;-77
2022/04/26 06:52:24;;;;;;;35.87;18.93;;;;;;;;;;10445245;28;20447;-76
2022/04/26 06:57:24;;;;;;;28.50;17.30;;;;;;;;;;10469170;28;20057;-78
2022/04/26 07:02:27;;;;;;;26.92;16.83;;;;;;;;;;10475696;28;20049;-76
2022/04/26 07:07:28;;;;;;;31.80;18.15;;;;;;;;;;10478212;28;20104;-75
2022/04/26 07:12:28;;;;;;;30.27;17.13;;;;;;;;;;10462483;28;20064;-76
2022/04/26 07:17:29;;;;;;;32.37;18.77;;;;;;;;;;10471950;28;20056;-76
2022/04/26 07:22:30;;;;;;;29.90;18.63;;;;;;;;;;10465907;28;20272;-77
2022/04/26 07:27:30;;;;;;;36.10;20.48;;;;;;;;;;10458404;28;20419;-78
2022/04/26 07:37:49;;;;;;;30.65;18.65;;;;;;;;;;10471738;28;20570;-78
2022/04/26 07:42:50;;;;;;;29.95;18.35;;;;;;;;;;10462526;28;20063;-78
2022/04/26 07:47:51;;;;;;;29.13;17.00;;;;;;;;;;10448140;28;20120;-76
2022/04/26 07:52:52;;;;;;;30.27;18.88;;;;;;;;;;10455290;28;20072;-76
2022/04/26 07:57:53;;;;;;;31.15;18.92;;;;;;;;;;10476502;28;20037;-78
2022/04/26 08:02:55;;;;;;;30.63;18.67;;;;;;;;;;10474349;28;20156;-78
2022/04/26 08:07:55;;;;;;;31.42;19.73;;;;;;;;;;10447428;28;20091;-77
2022/04/26 08:12:55;;;;;;;35.08;19.95;;;;;;;;;;10447342;28;20151;-77
2022/04/26 08:17:56;;;;;;;35.10;20.15;;;;;;;;;;10446645;28;20469;-78
2022/04/26 08:22:56;;;;;;;30.50;19.05;;;;;;;;;;10439309;28;20106;-77
2022/04/26 08:27:57;;;;;;;32.90;19.23;;;;;;;;;;10454768;28;20056;-76
2022/04/26 08:32:57;;;;;;;32.30;19.35;;;;;;;;;;10438911;28;20060;-78
2022/04/26 08:37:57;;;;;;;34.00;20.40;;;;;;;;;;10438553;28;20147;-77
2022/04/26 08:42:59;;;;;;;38.42;21.25;;;;;;;;;;10463465;28;20065;-77
2022/04/26 08:53:21;;;;;;;35.63;21.00;;;;;;;;;;10459595;28;20053;-78
2022/04/26 08:58:22;;;;;;;34.10;20.52;;;;;;;;;;10429621;28;20056;-78
2022/04/26 09:03:23;;;;;;;31.25;20.52;;;;;;;;;;10425844;28;20128;-78
2022/04/26 09:08:23;;;;;;;29.63;19.50;;;;;;;;;;10450612;28;20508;-78
2022/04/26 09:13:24;;;;;;;29.02;18.92;;;;;;;;;;10441919;28;20135;-77
2022/04/26 09:18:29;;;;;;;34.47;21.27;;;;;;;;;;10428082;28;20174;-78
2022/04/26 09:23:30;;;;;;;35.88;20.30;;;;;;;;;;10444064;28;20148;-79
2022/04/26 09:28:30;;;;;;;30.85;18.30;;;;;;;;;;10409332;28;20067;-78
2022/04/26 09:33:38;;;;;;;31.52;20.25;;;;;;;;;;10436240;28;20073;-76
2022/04/26 09:38:39;;;;;;;32.03;19.88;;;;;;;;;;10434590;28;20056;-78
2022/04/26 09:43:40;;;;;;;29.80;18.45;;;;;;;;;;10428916;28;20053;-78
2022/04/26 09:48:40;;;;;;;33.10;20.33;;;;;;;;;;10445239;28;20051;-77
2022/04/26 09:53:41;;;;;;;34.03;20.65;;;;;;;;;;10434550;28;20619;-77
2022/04/26 09:58:43;;;;;;;37.17;22.23;;;;;;;;;;10426265;28;20136;-76
2022/04/26 10:03:45;;;;;;;30.77;19.60;;;;;;;;;;10428145;28;20472;-75
2022/04/26 10:08:47;;;;;;;33.83;20.10;;;;;;;;;;10440721;28;20133;-76
2022/04/26 10:13:48;;;;;;;21.85;14.05;;;;;;;;;;10425458;28;20061;-77
2022/04/26 10:18:49;;;;;;;22.05;14.55;;;;;;;;;;10442271;28;20054;-75
2022/04/26 10:23:56;;;;;;;20.60;13.27;;;;;;;;;;10445530;28;20055;-75
2022/04/26 10:28:58;;;;;;;18.00;12.13;;;;;;;;;;10437854;28;20037;-76
2022/04/26 10:33:58;;;;;;;17.92;11.48;;;;;;;;;;10443243;28;20120;-78
2022/04/26 10:39:19;;;;;;;19.10;13.48;;;;;;;;;;10458392;28;20120;-79
2022/04/26 10:44:21;;;;;;;18.85;11.68;;;;;;;;;;10394996;28;20132;-77
2022/04/26 10:49:24;;;;;;;17.27;11.50;;;;;;;;;;10406758;28;20041;-78
2022/04/26 10:54:43;;;;;;;26.67;18.95;;;;;;;;;;10389826;28;20208;-77
2022/04/26 10:59:45;;;;;;;21.40;13.35;;;;;;;;;;10409626;28;20116;-78
2022/04/26 11:04:46;;;;;;;16.02;12.05;;;;;;;;;;10371479;28;20084;-78
2022/04/26 11:09:50;;;;;;;18.75;11.63;;;;;;;;;;10409727;28;20071;-78
2022/04/26 11:14:52;;;;;;;16.15;10.77;;;;;;;;;;10429492;28;20085;-78
2022/04/26 11:19:54;;;;;;;13.63;9.57;;;;;;;;;;10416850;28;20069;-78
2022/04/26 11:30:35;;;;;;;9.68;7.47;;;;;;;;;;10434260;28;20053;-77
2022/04/26 11:35:36;;;;;;;10.60;6.85;;;;;;;;;;10409291;28;20053;-77
2022/04/26 11:40:41;;;;;;;10.20;6.68;;;;;;;;;;10418445;28;20049;-79
2022/04/26 11:45:44;;;;;;;12.15;7.20;;;;;;;;;;10445614;28;20131;-77
2022/04/26 11:50:46;;;;;;;9.02;6.75;;;;;;;;;;10458705;28;20045;-79
2022/04/26 11:55:54;;;;;;;9.80;7.82;;;;;;;;;;10445312;28;20133;-78
2022/04/26 12:00:56;;;;;;;9.00;6.78;;;;;;;;;;10482389;28;20649;-79
2022/04/26 12:06:04;;;;;;;9.82;6.80;;;;;;;;;;10486462;28;20123;-77
2022/04/26 12:11:18;;;;;;;9.45;7.10;;;;;;;;;;10481320;28;20061;-77
2022/04/26 12:16:18;;;;;;;;;;;;;;;;;;10444044;28;20065;-77
2022/04/26 12:21:19;;;;;;;7.40;5.32;;;;;;;;;;10430572;28;19938;-78
2022/04/26 12:26:19;;;;;;;6.78;5.40;;;;;;;;;;10441989;28;20045;-77
2022/04/26 12:31:25;;;;;;;7.15;5.65;;;;;;;;;;10438335;28;20048;-79
2022/04/26 12:36:25;;;;;;;6.38;5.05;;;;;;;;;;10437348;28;20092;-78
2022/04/26 12:41:26;;;;;;;9.53;6.00;;;;;;;;;;10441960;28;20100;-80
2022/04/26 12:46:27;;;;;;;7.18;5.70;;;;;;;;;;10434177;28;20279;-80
2022/04/26 12:51:29;;;;;;;6.28;4.85;;;;;;;;;;10470864;28;20045;-79
2022/04/26 12:56:31;;;;;;;7.13;6.05;;;;;;;;;;10442453;28;20049;-82
2022/04/26 13:01:34;;;;;;;6.50;5.68;;;;;;;;;;10444484;28;20045;-79
2022/04/26 13:06:37;;;;;;;4.80;4.25;;;;;;;;;;10462784;28;20041;-80
2022/04/26 13:11:39;;;;;;;5.28;4.63;;;;;;;;;;10428174;28;20057;-83
2022/04/26 13:16:45;;;;;;;5.97;5.20;;;;;;;;;;10445323;28;20189;-78
2022/04/26 13:21:45;;;;;;;7.10;5.75;;;;;;;;;;10419972;28;20044;-80
2022/04/26 13:26:46;;;;;;;6.57;5.38;;;;;;;;;;10438033;28;20504;-77
2022/04/26 13:31:47;;;;;;;6.18;5.00;;;;;;;;;;10446648;28;20089;-78
2022/04/26 13:36:48;;;;;;;5.43;4.32;;;;;;;;;;10436488;28;20121;-80
2022/04/26 13:41:50;;;;;;;7.45;4.90;;;;;;;;;;10485642;28;20059;-79
2022/04/26 13:46:53;;;;;;;6.00;5.40;;;;;;;;;;10475019;28;20064;-79
2022/04/26 13:51:53;;;;;;;4.90;4.35;;;;;;;;;;10448212;28;20065;-80
2022/04/26 13:57:01;;;;;;;5.57;4.82;;;;;;;;;;10466242;28;20148;-78
2022/04/26 14:02:01;;;;;;;5.90;4.45;;;;;;;;;;10448305;28;20531;-80
2022/04/26 14:07:04;;;;;;;5.50;4.75;;;;;;;;;;10435339;28;20045;-78
2022/04/26 14:12:08;;;;;;;5.00;4.50;;;;;;;;;;10446378;28;20052;-79
2022/04/26 14:22:32;;;;;;;5.57;4.78;;;;;;;;;;10456407;28;20052;-79
2022/04/26 14:27:32;;;;;;;6.30;5.00;;;;;;;;;;10468881;28;20045;-79
2022/04/26 14:32:34;;;;;;;6.55;5.10;;;;;;;;;;10476191;28;20147;-79
2022/04/26 14:37:36;;;;;;;4.30;3.90;;;;;;;;;;10468258;28;20048;-80
2022/04/26 14:42:38;;;;;;;4.90;4.28;;;;;;;;;;10478244;28;20124;-80
2022/04/26 14:47:40;;;;;;;5.15;4.60;;;;;;;;;;10438329;28;20033;-80
2022/04/26 14:52:42;;;;;;;6.88;5.20;;;;;;;;;;10464046;28;20122;-80
2022/04/26 14:57:43;;;;;;;6.05;4.50;;;;;;;;;;10454827;28;20079;-79
2022/04/26 15:02:48;;;;;;;6.30;5.50;;;;;;;;;;10441576;28;20060;-80
2022/04/26 15:18:32;;;;;;;7.45;5.63;;;;;;;;;;10444930;28;19960;-75
2022/04/26 15:23:35;;;;;;;6.30;5.13;;;;;;;;;;10523201;23;20076;-81
2022/04/26 15:28:38;;;;;;;6.57;5.28;;;;;;;;;;10435804;28;20049;-79
2022/04/26 15:33:38;;;;;;;5.70;4.47;;;;;;;;;;10461861;28;20083;-80
2022/04/26 15:38:43;;;;;;;5.10;4.32;;;;;;;;;;10472480;28;20066;-81
2022/04/26 15:43:44;;;;;;;5.32;4.32;;;;;;;;;;10459775;28;20041;-78
2022/04/26 15:48:48;;;;;;;4.45;3.90;;;;;;;;;;10475543;28;20072;-78
2022/04/26 15:53:53;;;;;;;7.55;5.30;;;;;;;;;;10432078;28;20085;-81
2022/04/26 15:58:56;;;;;;;4.95;3.97;;;;;;;;;;10479628;28;20063;-81
2022/04/26 16:04:00;;;;;;;;;;;;;;;;;;10479166;28;20040;-81
2022/04/26 16:25:00;;;;;;;6.03;5.00;;;;;;;;;;10423100;28;20135;-80
2022/04/26 16:30:03;;;;;;;6.78;5.47;;;;;;;;;;10434783;28;20045;-79
2022/04/26 16:35:07;;;;;;;5.47;4.53;;;;;;;;;;10394587;28;20088;-80
2022/04/26 16:40:09;;;;;;;6.13;4.90;;;;;;;;;;10374359;28;20180;-80
2022/04/26 16:45:16;;;;;;;5.50;4.38;;;;;;;;;;10438901;28;20059;-81
2022/04/26 16:50:16;;;;;;;5.03;3.70;;;;;;;;;;10403657;28;20121;-82
2022/04/26 16:55:17;;;;;;;5.25;3.70;;;;;;;;;;10382348;28;20061;-78
2022/04/26 17:00:24;;;;;;;4.00;3.50;;;;;;;;;;10426842;28;20047;-82
2022/04/26 17:06:02;;;;;;;4.38;3.97;;;;;;;;;;10398519;28;20053;-83
2022/04/26 17:16:32;;;;;;;4.22;3.80;;;;;;;;;;10405110;28;20561;-80
2022/04/26 17:21:33;;;;;;;3.85;3.38;;;;;;;;;;10419671;28;20042;-82
2022/04/26 17:26:36;;;;;;;3.80;3.45;;;;;;;;;;10405757;28;20748;-81
2022/04/26 17:31:41;;;;;;;4.93;3.90;;;;;;;;;;10426465;28;20042;-81
2022/04/26 17:36:42;;;;;;;6.45;4.80;;;;;;;;;;10421614;28;20179;-80
2022/04/26 17:41:43;;;;;;;14.73;11.23;;;;;;;;;;10408272;28;20517;-82
2022/04/26 17:46:45;;;;;;;6.18;5.05;;;;;;;;;;10428497;28;20053;-79
2022/04/26 17:51:46;;;;;;;5.13;4.00;;;;;;;;;;10442598;28;20049;-80
2022/04/26 17:56:46;;;;;;;6.37;4.63;;;;;;;;;;10443226;28;20069;-80
2022/04/26 18:01:47;;;;;;;5.45;3.75;;;;;;;;;;10421788;28;20060;-80
2022/04/26 18:06:51;;;;;;;5.35;4.05;;;;;;;;;;10422187;28;20388;-79
2022/04/26 18:11:51;;;;;;;5.60;4.70;;;;;;;;;;10397324;28;20041;-80
2022/04/26 18:16:53;;;;;;;6.70;4.80;;;;;;;;;;10426552;28;20300;-83
2022/04/26 18:21:57;;;;;;;6.45;4.82;;;;;;;;;;10431124;28;20453;-79
2022/04/26 18:26:58;;;;;;;5.75;4.75;;;;;;;;;;10401673;28;20111;-78
2022/04/26 18:31:58;;;;;;;10.80;7.15;;;;;;;;;;10437032;28;20083;-78
2022/04/26 18:36:58;;;;;;;8.32;5.85;;;;;;;;;;10421736;28;20153;-78
2022/04/26 18:42:00;;;;;;;6.57;5.15;;;;;;;;;;10437679;28;20077;-77
2022/04/26 18:47:01;;;;;;;9.73;6.72;;;;;;;;;;10413594;28;20052;-78
2022/04/26 18:52:02;;;;;;;7.85;5.78;;;;;;;;;;10417382;28;20418;-79
2022/04/26 18:57:03;;;;;;;8.07;6.57;;;;;;;;;;10409813;28;20073;-81
2022/04/26 19:02:05;;;;;;;9.85;7.60;;;;;;;;;;10391564;28;20068;-79
2022/04/26 19:07:06;;;;;;;8.77;6.70;;;;;;;;;;10408285;28;20053;-80
2022/04/26 19:12:15;;;;;;;9.90;7.43;;;;;;;;;;10420859;28;20050;-78
2022/04/26 19:17:19;;;;;;;9.45;6.82;;;;;;;;;;10383250;28;20053;-80
2022/04/26 19:22:19;;;;;;;9.35;7.22;;;;;;;;;;10419565;28;20053;-78
2022/04/26 19:27:20;;;;;;;9.57;7.20;;;;;;;;;;10417438;28;20042;-78
2022/04/26 19:32:22;;;;;;;10.57;7.30;;;;;;;;;;10423544;28;20387;-79
2022/04/26 19:37:22;;;;;;;10.27;7.23;;;;;;;;;;10387874;28;20063;-80
2022/04/26 19:42:24;;;;;;;10.27;7.60;;;;;;;;;;10399556;28;20053;-80
2022/04/26 19:47:24;;;;;;;14.82;7.65;;;;;;;;;;10421882;28;20289;-79
2022/04/26 19:52:25;;;;;;;9.98;7.45;;;;;;;;;;10400087;28;20060;-80
2022/04/26 19:57:27;;;;;;;9.60;7.22;;;;;;;;;;10404381;28;20080;-79
2022/04/26 20:02:27;;;;;;;9.98;8.60;;;;;;;;;;10405508;28;20136;-79
2022/04/26 20:07:29;;;;;;;12.65;9.10;;;;;;;;;;10403788;28;20045;-79
2022/04/26 20:12:29;;;;;;;13.55;9.48;;;;;;;;;;10389483;28;20057;-79
2022/04/26 20:17:30;;;;;;;12.88;9.70;;;;;;;;;;10434437;28;20034;-80
2022/04/26 20:22:31;;;;;;;17.48;11.00;;;;;;;;;;10436803;28;20057;-82
2022/04/26 20:32:54;;;;;;;14.27;11.55;;;;;;;;;;10413209;28;20060;-83
2022/04/26 20:37:55;;;;;;;16.92;12.98;;;;;;;;;;10405817;28;20049;-82
2022/04/26 20:42:57;;;;;;;16.30;12.07;;;;;;;;;;10385485;28;20047;-83
2022/04/26 20:47:59;;;;;;;17.73;13.27;;;;;;;;;;10446233;28;20080;-82
2022/04/26 20:53:00;;;;;;;18.45;14.00;;;;;;;;;;10414505;28;20073;-83
2022/04/26 20:58:03;;;;;;;22.80;15.40;;;;;;;;;;10412521;28;20045;-82
2022/04/26 21:03:05;;;;;;;22.75;15.57;;;;;;;;;;10418961;28;20041;-81
2022/04/26 21:08:06;;;;;;;24.85;15.95;;;;;;;;;;10415634;28;20053;-83
2022/04/26 21:13:25;;;;;;;20.55;14.20;;;;;;;;;;10430735;28;20057;-82
2022/04/26 21:18:27;;;;;;;23.33;14.77;;;;;;;;;;10408921;28;20833;-81
2022/04/26 21:23:29;;;;;;;22.70;14.90;;;;;;;;;;10408883;28;20157;-84
2022/04/26 21:28:50;;;;;;;21.90;14.18;;;;;;;;;;10380426;28;20069;-82
2022/04/26 21:33:54;;;;;;;20.73;14.77;;;;;;;;;;10404785;28;20062;-79
2022/04/26 21:39:00;;;;;;;21.88;14.48;;;;;;;;;;10408009;28;20077;-82
2022/04/26 21:44:02;;;;;;;18.23;13.30;;;;;;;;;;10436376;28;20041;-80
2022/04/26 21:49:06;;;;;;;20.67;15.23;;;;;;;;;;10440724;28;20045;-80
2022/04/26 21:54:09;;;;;;;21.63;15.35;;;;;;;;;;10444243;28;20056;-82
2022/04/26 21:59:10;;;;;;;22.15;15.38;;;;;;;;;;10414756;28;20071;-80
2022/04/26 22:04:13;;;;;;;20.88;15.32;;;;;;;;;;10399738;28;20045;-80
2022/04/26 22:09:14;;;;;;;21.93;15.30;;;;;;;;;;10433953;28;20480;-79
2022/04/26 22:14:15;;;;;;;19.83;14.32;;;;;;;;;;10412172;28;20046;-80
2022/04/26 22:19:15;;;;;;;24.00;17.70;;;;;;;;;;10400863;28;20063;-80
2022/04/26 22:24:18;;;;;;;;;;;;;;;;;;10390838;28;20049;-81
2022/04/26 22:29:21;;;;;;;23.73;15.45;;;;;;;;;;10375262;28;19921;-79
2022/04/26 22:34:21;;;;;;;27.52;18.52;;;;;;;;;;10403209;28;20054;-79
2022/04/26 22:39:22;;;;;;;26.90;17.85;;;;;;;;;;10401675;28;20054;-79
2022/04/26 22:44:22;;;;;;;29.70;18.17;;;;;;;;;;10395078;28;20045;-80
2022/04/26 22:49:22;;;;;;;27.77;17.17;;;;;;;;;;10418495;28;20053;-79
2022/04/26 22:54:23;;;;;;;23.58;17.27;;;;;;;;;;10394601;28;20069;-79
2022/04/26 22:59:23;;;;;;;27.37;17.93;;;;;;;;;;10398288;28;20130;-79
2022/04/26 23:04:23;;;;;;;27.47;16.50;;;;;;;;;;10407709;28;20064;-78
2022/04/26 23:09:24;;;;;;;29.42;17.65;;;;;;;;;;10415452;28;20493;-78
2022/04/26 23:14:24;;;;;;;24.97;16.90;;;;;;;;;;10405462;28;20057;-79
2022/04/26 23:19:24;;;;;;;28.10;17.50;;;;;;;;;;10430913;28;20314;-78
2022/04/26 23:24:25;;;;;;;23.23;14.37;;;;;;;;;;10425242;28;20469;-78
2022/04/26 23:29:25;;;;;;;26.73;17.57;;;;;;;;;;10415819;28;20060;-80
2022/04/26 23:39:44;;;;;;;28.00;17.23;;;;;;;;;;10426877;28;20054;-79
2022/04/26 23:44:46;;;;;;;31.17;17.80;;;;;;;;;;10429579;28;20038;-81
2022/04/26 23:49:47;;;;;;;31.37;18.13;;;;;;;;;;10431671;28;20135;-81
2022/04/26 23:54:48;;;;;;;37.58;19.60;;;;;;;;;;10405301;28;20076;-80
2022/04/26 23:59:48;;;;;;;34.30;17.67;;;;;;;;;;10392793;28;20123;-80
